Time;durP1;ratioP1;P1;durP2;ratioP2;P2;SDS_P1;SDS_P2;PMS_P1;PMS_P2;Temp;Humidity;BMP_temperature;BMP_pressure;BME280_temperature;BME280_humidity;BME280_pressure;Samples;Min_cycle;Max_cycle;Signal;HPM_P1;HPM_P2
2022/01/02 00:02:09;;;;;;;5.55;5.05;;;;;;;7.22;82.50;100656.69;10419373;28;20088;-72
2022/01/02 00:07:14;;;;;;;6.72;6.13;;;;;;;7.26;82.54;100638.34;10419340;28;20076;-73
2022/01/02 00:12:25;;;;;;;6.05;5.20;;;;;;;7.26;82.16;100622.66;10418397;28;20049;-72
2022/01/02 00:17:29;;;;;;;5.70;5.20;;;;;;;7.13;82.96;100615.81;10417887;28;20041;-71
2022/01/02 00:22:35;;;;;;;6.97;6.38;;;;;;;7.19;83.08;100612.25;10418051;28;20088;-72
2022/01/02 00:27:37;;;;;;;7.03;6.20;;;;;;;7.33;81.53;100620.84;10400467;28;20418;-72
2022/01/02 00:32:42;;;;;;;6.55;5.93;;;;;;;6.95;83.30;100605.47;10417491;28;20104;-71
2022/01/02 00:37:44;;;;;;;7.85;6.88;;;;;;;6.99;83.42;100594.97;10416253;28;20391;-71
2022/01/02 00:42:51;;;;;;;6.88;6.20;;;;;;;7.36;81.81;100578.97;10417659;28;20107;-72
2022/01/02 00:48:08;;;;;;;8.03;6.80;;;;;;;6.92;83.20;100574.16;10399751;28;20103;-72
2022/01/02 00:53:12;;;;;;;6.90;6.30;;;;;;;6.74;83.94;100572.53;10416726;28;20046;-73
2022/01/02 00:58:19;;;;;;;7.70;6.90;;;;;;;6.69;83.82;100567.34;10416302;28;20042;-72
2022/01/02 01:03:25;;;;;;;8.00;7.20;;;;;;;6.47;84.12;100582.31;10399849;28;20479;-72
2022/01/02 01:08:29;;;;;;;8.00;6.70;;;;;;;6.45;83.81;100573.59;10398525;28;20057;-72
2022/01/02 01:13:32;;;;;;;7.47;6.57;;;;;;;6.15;84.83;100574.63;10416074;28;20042;-72
2022/01/02 01:18:34;;;;;;;7.80;7.03;;;;;;;6.37;85.25;100569.31;10414480;28;20069;-72
2022/01/02 01:23:36;;;;;;;6.88;6.22;;;;;;;6.18;85.03;100574.63;10415887;28;20041;-72
2022/01/02 01:28:38;;;;;;;6.28;5.00;;;;;;;6.02;85.50;100566.03;10415786;28;20034;-71
2022/01/02 01:33:39;;;;;;;6.53;4.90;;;;;;;6.00;86.44;100559.94;10415404;28;20095;-71
2022/01/02 01:38:41;;;;;;;5.38;4.88;;;;;;;5.96;86.47;100542.53;10415170;28;20049;-72
2022/01/02 01:44:05;;;;;;;6.50;5.93;;;;;;;5.97;85.87;100535.59;10397279;28;20506;-72
2022/01/02 01:49:16;;;;;;;7.00;5.70;;;;;;;5.83;86.96;100515.63;10397356;28;20041;-73
2022/01/02 01:54:18;;;;;;;6.50;5.55;;;;;;;5.77;87.63;100502.63;10397460;28;20077;-73
2022/01/02 01:59:21;;;;;;;6.07;4.78;;;;;;;5.95;87.71;100503.44;10415607;28;20072;-73
2022/01/02 02:04:24;;;;;;;6.03;5.43;;;;;;;6.00;87.53;100499.91;10413103;28;20049;-72
2022/01/02 02:09:33;;;;;;;4.85;4.38;;;;;;;6.03;87.49;100486.00;10417203;28;20038;-71
2022/01/02 02:14:36;;;;;;;7.38;5.85;;;;;;;5.97;87.62;100483.41;10423589;28;20081;-72
2022/01/02 02:19:38;;;;;;;6.60;5.50;;;;;;;6.09;87.83;100464.19;10404753;28;20068;-71
2022/01/02 02:24:41;;;;;;;5.80;5.30;;;;;;;6.18;87.05;100470.22;10405641;28;20095;-72
2022/01/02 02:29:43;;;;;;;6.80;6.15;;;;;;;6.03;88.44;100429.44;10405128;28;20084;-72
2022/01/02 02:34:45;;;;;;;7.15;5.00;;;;;;;6.27;86.68;100423.16;10404803;28;20041;-72
2022/01/02 02:39:47;;;;;;;7.75;5.60;;;;;;;6.28;86.30;100414.44;10404108;28;20511;-72
2022/01/02 02:44:57;;;;;;;9.30;5.38;;;;;;;6.21;86.24;100418.00;10404194;28;20073;-73
2022/01/02 02:49:59;;;;;;;6.28;5.40;;;;;;;6.43;84.07;100402.16;10403651;28;20164;-73
2022/01/02 02:55:01;;;;;;;6.88;6.20;;;;;;;6.20;84.93;100394.53;10421314;28;20045;-72
2022/01/02 03:00:03;;;;;;;7.22;6.63;;;;;;;5.89;86.91;100392.13;10403227;28;20044;-71
2022/01/02 03:05:07;;;;;;;6.22;5.63;;;;;;;5.98;86.49;100405.13;10402961;28;20041;-72
2022/01/02 03:10:10;;;;;;;9.68;6.53;;;;;;;6.13;86.51;100411.09;10402572;28;20041;-73
2022/01/02 03:15:12;;;;;;;7.35;6.32;;;;;;;6.13;86.41;100398.91;10421441;28;20132;-72
2022/01/02 03:20:13;;;;;;;7.07;5.80;;;;;;;6.36;85.39;100385.66;10402107;28;20042;-72
2022/01/02 03:25:16;;;;;;;6.97;5.75;;;;;;;6.27;85.30;100370.09;10420706;28;20079;-73
2022/01/02 03:30:19;;;;;;;6.75;6.13;;;;;;;6.09;86.17;100346.75;10420494;28;20037;-71
2022/01/02 03:35:21;;;;;;;6.32;5.75;;;;;;;6.24;85.12;100339.66;10404380;28;20044;-71
2022/01/02 03:40:23;;;;;;;6.82;5.72;;;;;;;5.96;85.74;100314.69;10402547;28;20140;-73
2022/01/02 03:45:26;;;;;;;5.53;5.00;;;;;;;6.14;84.59;100322.34;10419056;28;20136;-72
2022/01/02 03:50:28;;;;;;;5.57;5.07;;;;;;;5.79;85.97;100315.63;10386065;28;20037;-72
2022/01/02 03:55:33;;;;;;;6.40;5.50;;;;;;;5.63;86.55;100311.44;10402250;28;20053;-72
2022/01/02 04:00:34;;;;;;;6.80;6.00;;;;;;;5.34;88.07;100318.56;10401430;28;20446;-72
2022/01/02 04:05:38;;;;;;;7.55;5.75;;;;;;;5.23;88.78;100336.88;10401371;28;20045;-72
2022/01/02 04:10:39;;;;;;;6.43;5.65;;;;;;;5.44;87.76;100323.69;10384883;28;20388;-72
2022/01/02 04:15:41;;;;;;;6.68;5.28;;;;;;;5.45;87.79;100291.56;10420363;28;20509;-72
2022/01/02 04:20:44;;;;;;;6.97;5.78;;;;;;;5.40;87.52;100289.84;10400587;28;20136;-73
2022/01/02 04:25:45;;;;;;;5.97;5.38;;;;;;;5.21;88.93;100296.91;10478370;23;20037;-76
2022/01/02 04:30:47;;;;;;;6.70;6.00;;;;;;;5.11;90.02;100287.44;10487647;28;20108;-77
2022/01/02 04:35:50;;;;;;;6.20;5.60;;;;;;;5.41;89.15;100279.44;10502714;28;20048;-76
2022/01/02 04:40:52;;;;;;;7.28;6.00;;;;;;;5.31;89.10;100282.94;10486131;28;20574;-76
2022/01/02 04:45:56;;;;;;;5.97;5.32;;;;;;;5.72;88.02;100269.63;10486222;28;20147;-76
2022/01/02 04:50:59;;;;;;;8.35;6.38;;;;;;;5.78;89.45;100268.69;10502499;28;20048;-76
2022/01/02 04:56:03;;;;;;;7.45;6.22;;;;;;;5.67;89.57;100267.94;10486485;28;20044;-76
2022/01/02 05:01:11;;;;;;;5.60;5.07;;;;;;;5.77;88.38;100248.72;10487095;28;20110;-77
2022/01/02 05:06:14;;;;;;;6.18;5.47;;;;;;;5.71;87.03;100239.22;10486717;28;20049;-76
2022/01/02 05:11:17;;;;;;;6.57;5.97;;;;;;;5.53;88.58;100228.91;10486303;28;20056;-76
2022/01/02 05:16:19;;;;;;;7.18;6.57;;;;;;;5.27;89.47;100229.13;10485864;28;20403;-76
2022/01/02 05:21:21;;;;;;;6.65;5.85;;;;;;;5.26;90.13;100219.56;10486821;28;20068;-77
2022/01/02 05:26:23;;;;;;;6.97;6.38;;;;;;;5.29;90.27;100203.91;10468945;28;20044;-76
2022/01/02 05:31:25;;;;;;;8.40;5.30;;;;;;;5.28;90.58;100196.97;10500715;28;20135;-76
2022/01/02 05:36:27;;;;;;;6.22;5.53;;;;;;;5.69;88.41;100188.78;10483916;28;20048;-76
2022/01/02 05:41:31;;;;;;;5.60;5.10;;;;;;;5.47;87.43;100187.25;10500051;28;20052;-76
2022/01/02 05:46:33;;;;;;;6.68;5.32;;;;;;;5.32;89.49;100170.88;10484346;28;20126;-76
2022/01/02 05:51:35;;;;;;;5.50;5.00;;;;;;;5.47;87.30;100150.75;10484888;28;20052;-76
2022/01/02 05:56:37;;;;;;;11.00;5.55;;;;;;;5.20;87.50;100134.47;10469623;28;20047;-76
2022/01/02 06:01:39;;;;;;;5.80;5.20;;;;;;;4.89;89.08;100146.00;10502708;28;20044;-76
2022/01/02 06:06:44;;;;;;;5.32;4.82;;;;;;;4.81;90.69;100157.34;10502379;28;20029;-76
2022/01/02 06:11:46;;;;;;;6.55;5.95;;;;;;;4.81;91.14;100153.88;10484707;28;20091;-76
2022/01/02 06:16:48;;;;;;;5.90;5.20;;;;;;;5.33;88.23;100145.66;10500368;28;20044;-75
2022/01/02 06:21:51;;;;;;;5.60;5.03;;;;;;;5.16;88.89;100135.38;10483135;28;20052;-77
2022/01/02 06:26:53;;;;;;;5.82;5.32;;;;;;;5.26;91.05;100136.16;10483390;28;20047;-76
2022/01/02 06:31:57;;;;;;;5.57;5.07;;;;;;;5.32;88.04;100154.38;10499866;28;20079;-76
2022/01/02 06:36:59;;;;;;;7.45;4.95;;;;;;;4.88;89.48;100155.56;10465985;28;20090;-77
2022/01/02 06:42:01;;;;;;;6.28;5.68;;;;;;;5.12;89.47;100138.03;10500575;28;20051;-76
2022/01/02 06:47:04;;;;;;;8.00;6.07;;;;;;;4.98;90.86;100156.38;10500669;28;20058;-77
2022/01/02 06:52:07;;;;;;;7.05;6.32;;;;;;;4.76;93.05;100166.06;10502129;28;20044;-76
2022/01/02 06:57:09;;;;;;;7.15;6.45;;;;;;;5.19;93.05;100165.78;10487907;28;20118;-76
2022/01/02 07:02:11;;;;;;;7.95;6.72;;;;;;;5.05;92.09;100151.09;10491180;28;20048;-77
2022/01/02 07:07:13;;;;;;;10.93;7.13;;;;;;;4.87;93.04;100137.34;10492244;28;20040;-77
2022/01/02 07:12:15;;;;;;;9.55;7.15;;;;;;;4.99;93.41;100151.13;10491346;28;20410;-77
2022/01/02 07:17:17;;;;;;;9.27;7.03;;;;;;;4.96;92.69;100143.38;10491183;28;20037;-77
2022/01/02 07:22:18;;;;;;;7.45;6.85;;;;;;;5.08;92.10;100131.97;10490429;28;20055;-77
2022/01/02 07:27:21;;;;;;;8.68;7.78;;;;;;;4.91;93.19;100137.28;10508214;28;20041;-76
2022/01/02 07:32:23;;;;;;;7.95;7.05;;;;;;;5.23;93.16;100151.84;10473532;28;20489;-76
2022/01/02 07:37:25;;;;;;;8.43;6.82;;;;;;;5.14;92.60;100141.50;10474513;28;20041;-76
2022/01/02 07:42:27;;;;;;;7.55;6.20;;;;;;;5.38;90.98;100143.03;10506088;28;20071;-76
2022/01/02 07:47:34;;;;;;;8.32;7.15;;;;;;;5.26;91.97;100149.19;10489048;28;20510;-76
2022/01/02 07:52:36;;;;;;;7.95;7.07;;;;;;;5.29;91.75;100150.03;10505052;28;20052;-76
2022/01/02 07:57:38;;;;;;;8.20;7.38;;;;;;;5.37;91.40;100143.91;10505815;28;20041;-76
2022/01/02 08:02:39;;;;;;;8.30;7.47;;;;;;;5.35;92.87;100151.72;10489000;28;20060;-76
2022/01/02 08:07:41;;;;;;;9.40;8.60;;;;;;;5.41;94.17;100149.06;10489543;28;20040;-76
2022/01/02 08:12:43;;;;;;;10.65;9.65;;;;;;;5.61;94.81;100161.06;10509322;28;20036;-77
2022/01/02 08:17:45;;;;;;;11.15;10.15;;;;;;;6.20;93.28;100141.34;10487419;28;20110;-77
2022/01/02 08:22:46;;;;;;;10.18;9.38;;;;;;;5.99;93.22;100132.88;10490326;28;20040;-77
2022/01/02 08:27:48;;;;;;;10.50;9.50;;;;;;;6.48;92.12;100120.94;10504478;28;20067;-77
2022/01/02 08:32:50;;;;;;;10.25;9.30;;;;;;;6.71;92.31;100118.84;10506181;28;20052;-77
2022/01/02 08:37:52;;;;;;;9.50;8.70;;;;;;;7.22;89.70;100118.09;10487253;28;20047;-72
2022/01/02 08:42:54;;;;;;;9.77;8.88;;;;;;;7.04;90.44;100120.09;10503462;28;20054;-73
2022/01/02 08:47:55;;;;;;;9.73;8.93;;;;;;;7.34;89.47;100129.16;10485574;28;20048;-72
2022/01/02 08:52:57;;;;;;;9.70;8.70;;;;;;;7.25;90.46;100131.09;10504275;28;20052;-74
2022/01/02 08:57:59;;;;;;;9.20;8.40;;;;;;;7.39;90.21;100109.91;10485671;28;20070;-73
2022/01/02 09:03:00;;;;;;;10.18;8.73;;;;;;;7.73;88.26;100116.28;10502598;28;20054;-72
2022/01/02 09:08:03;;;;;;;10.07;7.45;;;;;;;7.94;88.07;100117.63;10503205;28;20036;-72
2022/01/02 09:13:04;;;;;;;8.60;7.85;;;;;;;8.04;86.34;100116.53;10485194;28;20049;-72
2022/01/02 09:18:06;;;;;;;9.70;8.80;;;;;;;8.09;86.53;100119.91;10503266;28;20041;-72
2022/01/02 09:23:08;;;;;;;8.50;7.70;;;;;;;8.19;86.21;100114.50;10485538;28;20044;-73
2022/01/02 09:28:10;;;;;;;8.77;7.32;;;;;;;8.48;85.18;100111.31;10502871;28;20036;-72
2022/01/02 09:33:11;;;;;;;8.10;7.32;;;;;;;8.67;84.00;100104.75;10500930;28;20056;-71
2022/01/02 09:38:13;;;;;;;8.02;7.32;;;;;;;8.60;84.08;100095.31;10502525;28;20044;-72
2022/01/02 09:43:18;;;;;;;8.88;8.05;;;;;;;8.67;83.28;100088.16;10501006;28;20516;-74
2022/01/02 09:48:21;;;;;;;9.02;7.18;;;;;;;8.60;84.20;100092.69;10482778;28;20053;-72
2022/01/02 09:53:23;;;;;;;8.65;7.85;;;;;;;8.63;83.97;100094.38;10484048;28;20052;-71
2022/01/02 09:58:29;;;;;;;9.15;8.27;;;;;;;8.70;84.16;100091.56;10483267;28;20039;-73
2022/01/02 10:03:54;;;;;;;9.52;8.70;;;;;;;8.70;84.02;100091.56;10500438;28;20067;-72
2022/01/02 10:08:57;;;;;;;9.32;8.43;;;;;;;8.76;84.01;100080.06;10498194;28;20043;-73
2022/01/02 10:14:02;;;;;;;9.63;8.73;;;;;;;8.80;83.63;100087.84;10482439;28;20407;-72
2022/01/02 10:19:26;;;;;;;9.27;8.45;;;;;;;8.83;83.69;100065.94;10500199;28;20452;-73
2022/01/02 10:24:37;;;;;;;9.15;8.38;;;;;;;9.27;80.76;100058.72;10514631;22;20132;-74
2022/01/02 10:29:57;;;;;;;11.18;10.18;;;;;;;9.20;81.70;100051.91;10498056;28;20097;-73
2022/01/02 10:35:21;;;;;;;10.48;9.45;;;;;;;9.15;81.68;100024.94;10482061;28;20040;-73
2022/01/02 10:40:41;;;;;;;10.40;9.27;;;;;;;9.19;81.81;100016.09;10480749;28;20537;-73
2022/01/02 10:45:44;;;;;;;10.50;9.50;;;;;;;9.66;79.64;100004.31;10511027;28;20459;-73
2022/01/02 10:51:06;;;;;;;9.77;8.88;;;;;;;9.94;77.77;99991.22;10467031;28;20470;-73
2022/01/02 10:56:08;;;;;;;9.43;8.63;;;;;;;9.70;79.40;99974.44;10452623;28;20041;-74
2022/01/02 11:01:10;;;;;;;8.55;7.70;;;;;;;10.00;77.95;99970.03;10454830;28;20048;-74
2022/01/02 11:06:25;;;;;;;9.02;8.23;;;;;;;9.83;79.22;99953.94;10482941;28;20048;-75
2022/01/02 11:11:27;;;;;;;8.18;7.43;;;;;;;9.82;78.17;99936.44;10453305;28;20041;-74
2022/01/02 11:16:32;;;;;;;9.55;8.68;;;;;;;9.94;77.72;99924.72;10452769;28;20083;-74
2022/01/02 11:21:35;;;;;;;8.13;7.40;;;;;;;10.03;77.45;99914.78;10470369;28;20044;-74
2022/01/02 11:26:42;;;;;;;8.57;7.78;;;;;;;9.88;78.09;99901.31;10472039;28;20494;-75
2022/01/02 11:31:48;;;;;;;7.85;7.22;;;;;;;9.72;79.08;99890.41;10467699;28;20067;-74
2022/01/02 11:36:50;;;;;;;14.02;8.82;;;;;;;9.64;79.03;99898.50;10449254;28;20051;-75
2022/01/02 11:41:53;;;;;;;10.00;8.65;;;;;;;10.01;77.42;99900.00;10467506;28;20046;-75
2022/01/02 11:46:57;;;;;;;9.25;8.55;;;;;;;9.55;79.09;99870.75;10467765;28;20041;-74
2022/01/02 11:52:10;;;;;;;9.65;8.80;;;;;;;9.43;80.62;99857.16;10448357;28;20045;-74
2022/01/02 11:57:11;;;;;;;8.77;7.97;;;;;;;9.47;80.06;99822.03;10451239;28;20502;-75
2022/01/02 12:02:13;;;;;;;9.32;8.25;;;;;;;9.63;79.39;99832.94;10467173;28;20080;-75
2022/01/02 12:07:40;;;;;;;9.65;8.68;;;;;;;9.80;78.67;99825.41;10451249;28;20088;-75
2022/01/02 12:13:02;;;;;;;;;;;;;;;9.77;79.22;99800.09;10447735;28;20578;-74
2022/01/02 12:18:09;;;;;;;11.18;10.18;;;;;;;9.61;80.53;99788.38;10464719;28;19924;-75
2022/01/02 12:23:11;;;;;;;11.15;10.15;;;;;;;9.69;79.98;99767.97;10465183;28;20110;-75
2022/01/02 12:28:12;;;;;;;17.00;10.18;;;;;;;9.51;80.97;99745.81;10465951;28;20075;-75
2022/01/02 12:33:30;;;;;;;10.30;9.38;;;;;;;9.65;80.32;99715.66;10466043;28;20048;-74
2022/01/02 12:38:44;;;;;;;11.10;10.20;;;;;;;9.41;80.87;99691.94;10447110;28;20406;-74
2022/01/02 12:43:57;;;;;;;10.05;9.05;;;;;;;9.42;80.98;99677.03;10463886;28;20045;-76
2022/01/02 12:49:00;;;;;;;11.30;10.25;;;;;;;9.27;81.96;99699.41;10450479;28;20051;-74
2022/01/02 12:54:08;;;;;;;11.07;10.00;;;;;;;9.23;82.03;99708.25;10464067;28;20052;-75
2022/01/02 12:59:14;;;;;;;11.10;9.95;;;;;;;9.33;81.31;99704.44;10447628;28;20086;-75
2022/01/02 13:04:21;;;;;;;11.13;10.13;;;;;;;9.78;78.82;99688.97;10465019;28;20118;-75
2022/01/02 13:09:29;;;;;;;11.50;10.50;;;;;;;9.69;78.65;99678.75;10452510;28;20130;-74
2022/01/02 13:14:39;;;;;;;12.48;11.38;;;;;;;9.30;80.34;99645.09;10467235;28;20049;-75
2022/01/02 13:19:56;;;;;;;11.82;10.77;;;;;;;8.98;82.47;99702.91;10465225;28;20045;-75
2022/01/02 13:25:11;;;;;;;17.70;11.13;;;;;;;9.32;80.77;99719.31;10464081;28;20131;-75
2022/01/02 13:30:18;;;;;;;11.75;10.63;;;;;;;9.16;81.87;99720.69;10447043;28;20048;-75
2022/01/02 13:35:22;;;;;;;11.70;10.70;;;;;;;9.19;82.02;99723.22;10449470;28;20102;-75
2022/01/02 13:40:30;;;;;;;11.48;10.57;;;;;;;9.13;82.40;99717.34;10462410;28;20059;-74
2022/01/02 13:45:33;;;;;;;12.00;11.00;;;;;;;9.19;81.88;99727.63;10461967;28;20045;-74
2022/01/02 13:50:46;;;;;;;11.15;10.25;;;;;;;9.02;83.10;99726.38;10469728;28;20506;-74
2022/01/02 13:55:50;;;;;;;12.85;11.65;;;;;;;9.01;83.31;99698.44;10481079;28;20056;-76
2022/01/02 14:01:00;;;;;;;12.15;10.95;;;;;;;9.06;83.95;99677.31;10473126;28;20106;-75
2022/01/02 14:06:13;;;;;;;13.07;11.98;;;;;;;9.37;82.57;99650.13;10506136;28;20040;-75
2022/01/02 14:11:20;;;;;;;12.65;11.55;;;;;;;9.43;81.81;99615.78;10470625;28;20041;-75
2022/01/02 14:21:36;;;;;;;12.30;11.25;;;;;;;9.49;81.30;99592.00;10493570;28;20044;-74
2022/01/02 14:26:37;;;;;;;14.07;12.40;;;;;;;9.43;81.26;99593.06;10476540;28;20090;-74
2022/01/02 14:31:39;;;;;;;12.60;11.45;;;;;;;9.14;83.72;99582.69;10511467;28;20044;-74
2022/01/02 14:36:41;;;;;;;13.13;12.02;;;;;;;9.30;83.30;99527.06;10514717;28;20067;-70
2022/01/02 14:41:45;;;;;;;13.60;12.38;;;;;;;9.22;83.17;99517.72;10511800;28;20048;-70
2022/01/02 14:46:48;;;;;;;11.32;10.30;;;;;;;9.44;82.98;99500.34;10510797;28;20064;-69
2022/01/02 14:51:50;;;;;;;12.55;10.20;;;;;;;9.36;82.75;99484.00;10509804;28;20040;-71
2022/01/02 14:56:52;;;;;;;11.68;8.45;;;;;;;9.29;81.21;99479.88;10509991;28;20036;-70
2022/01/02 15:01:55;;;;;;;3.83;1.85;;;;;;;10.70;64.17;99466.63;10510330;28;20051;-70
2022/01/02 15:06:56;;;;;;;1.67;1.10;;;;;;;11.96;57.01;99462.03;10490385;28;20041;-70
2022/01/02 15:12:02;;;;;;;1.23;0.82;;;;;;;12.40;55.64;99456.44;10471892;28;20041;-70
2022/01/02 15:17:03;;;;;;;2.38;0.90;;;;;;;13.06;51.41;99473.31;10466492;28;20430;-70
2022/01/02 15:22:06;;;;;;;1.63;1.00;;;;;;;13.23;50.45;99471.63;10452657;28;20040;-70
2022/01/02 15:27:08;;;;;;;2.47;1.13;;;;;;;13.38;50.39;99462.94;10468610;28;20048;-69
2022/01/02 15:32:16;;;;;;;1.73;1.17;;;;;;;13.27;50.29;99452.91;10490394;28;20037;-69
2022/01/02 15:37:18;;;;;;;1.73;0.90;;;;;;;13.14;50.63;99475.56;10489427;28;20048;-70
2022/01/02 15:42:20;;;;;;;2.45;1.20;;;;;;;13.38;51.08;99468.19;10493297;28;20044;-71
2022/01/02 15:47:22;;;;;;;3.20;1.67;;;;;;;13.32;50.75;99476.44;10490526;28;20053;-72
2022/01/02 15:52:24;;;;;;;2.08;1.10;;;;;;;13.56;49.12;99483.06;10506673;28;20049;-69
2022/01/02 15:57:25;;;;;;;1.70;1.15;;;;;;;13.41;49.81;99497.06;10507869;28;20060;-71
2022/01/02 16:02:32;;;;;;;2.83;1.63;;;;;;;13.52;49.45;99480.69;10490014;28;20066;-70
2022/01/02 16:07:34;;;;;;;2.63;1.40;;;;;;;13.68;49.07;99486.88;10508393;28;20097;-69
2022/01/02 16:12:35;;;;;;;2.28;1.42;;;;;;;13.70;49.15;99494.69;10488589;28;20044;-70
2022/01/02 16:17:37;;;;;;;4.13;1.67;;;;;;;13.67;49.52;99510.69;10476581;28;20106;-70
2022/01/02 16:22:38;;;;;;;3.53;1.70;;;;;;;13.36;50.72;99522.84;10447128;28;20053;-70
2022/01/02 16:27:40;;;;;;;3.70;1.58;;;;;;;13.55;49.76;99530.69;10481501;23;20108;-75
2022/01/02 16:32:41;;;;;;;4.03;1.70;;;;;;;13.07;51.41;99522.53;10490360;28;20048;-73
2022/01/02 16:37:43;;;;;;;2.50;1.70;;;;;;;13.08;51.96;99542.69;10510318;28;20504;-74
2022/01/02 16:42:45;;;;;;;2.10;1.60;;;;;;;12.84;52.84;99542.13;10512046;28;20045;-74
2022/01/02 16:47:47;;;;;;;5.25;2.00;;;;;;;12.63;53.61;99549.28;10494335;28;20045;-73
2022/01/02 16:52:49;;;;;;;2.20;1.52;;;;;;;12.58;54.21;99563.63;10509199;28;20075;-73
2022/01/02 16:57:52;;;;;;;3.47;1.70;;;;;;;12.47;54.39;99576.44;10488761;28;20062;-74
2022/01/02 17:02:58;;;;;;;2.72;2.00;;;;;;;12.30;55.31;99583.34;10507652;28;20046;-73
2022/01/02 17:08:00;;;;;;;2.73;1.90;;;;;;;12.33;54.54;99598.19;10506756;28;20041;-73
2022/01/02 17:13:03;;;;;;;4.68;2.28;;;;;;;12.17;55.60;99605.91;10489893;28;20119;-73
2022/01/02 17:18:05;;;;;;;4.03;1.98;;;;;;;11.94;56.21;99617.47;10489321;28;20101;-74
2022/01/02 17:23:07;;;;;;;2.95;1.80;;;;;;;11.84;57.40;99629.34;10504839;28;20414;-72
2022/01/02 17:28:09;;;;;;;4.00;2.05;;;;;;;11.68;57.88;99641.41;10486976;28;20056;-73
2022/01/02 17:33:12;;;;;;;3.05;1.60;;;;;;;11.57;58.59;99666.44;10506340;28;20410;-74
2022/01/02 17:38:16;;;;;;;2.55;2.08;;;;;;;11.60;58.61;99663.69;10486550;28;20070;-73
2022/01/02 17:43:19;;;;;;;4.63;2.42;;;;;;;11.41;59.46;99667.13;10504095;28;20041;-73
2022/01/02 17:48:20;;;;;;;3.45;2.08;;;;;;;11.43;59.75;99670.56;10503316;28;20048;-73
2022/01/02 17:53:22;;;;;;;3.25;2.33;;;;;;;11.51;59.55;99677.22;10487933;28;20052;-73
2022/01/02 17:58:23;;;;;;;3.15;2.47;;;;;;;11.54;59.38;99666.53;10486398;28;20047;-74
2022/01/02 18:03:25;;;;;;;3.05;2.10;;;;;;;11.36;60.38;99656.78;10471733;28;20151;-73
2022/01/02 18:08:29;;;;;;;3.33;2.28;;;;;;;11.49;59.90;99650.09;10505571;28;20047;-73
2022/01/02 18:13:36;;;;;;;3.00;2.20;;;;;;;11.46;60.01;99667.78;10503394;28;20037;-73
2022/01/02 18:18:37;;;;;;;;;;;;;;;11.35;60.64;99649.81;10504447;28;20048;-73
2022/01/02 18:23:43;;;;;;;4.50;2.08;;;;;;;11.30;61.09;99657.91;10505484;28;19924;-75
2022/01/02 18:28:44;;;;;;;2.60;1.80;;;;;;;11.32;60.68;99644.66;10502039;28;20039;-76
2022/01/02 18:33:46;;;;;;;3.17;2.10;;;;;;;11.31;60.77;99640.31;10487115;28;20055;-76
2022/01/02 18:38:48;;;;;;;2.72;1.67;;;;;;;11.26;60.66;99626.50;10486753;28;20056;-77
2022/01/02 18:43:50;;;;;;;3.45;1.80;;;;;;;11.21;61.22;99631.97;10505279;28;20090;-77
2022/01/02 18:48:51;;;;;;;3.08;2.17;;;;;;;11.24;61.20;99646.75;10488628;28;20478;-77
2022/01/02 18:53:53;;;;;;;4.05;2.00;;;;;;;11.27;61.11;99615.06;10514113;28;20076;-76
2022/01/02 18:58:55;;;;;;;4.10;2.00;;;;;;;11.28;61.16;99595.72;10493990;28;20041;-77
2022/01/02 19:03:57;;;;;;;2.60;1.88;;;;;;;11.07;61.75;99602.75;10494746;28;20040;-76
2022/01/02 19:08:59;;;;;;;4.13;1.95;;;;;;;10.91;62.21;99605.13;10514926;28;20056;-78
2022/01/02 19:14:00;;;;;;;4.63;2.22;;;;;;;10.98;61.81;99610.97;10495023;28;20048;-77
2022/01/02 19:19:02;;;;;;;2.60;2.10;;;;;;;11.01;61.86;99619.59;10492250;28;20052;-78
2022/01/02 19:24:04;;;;;;;2.90;1.70;;;;;;;10.81;62.75;99616.94;10491848;28;20048;-77
2022/01/02 19:29:06;;;;;;;1.73;1.60;;;;;;;10.86;62.42;99614.97;10509256;28;20056;-76
2022/01/02 19:34:09;;;;;;;4.22;2.10;;;;;;;10.88;62.47;99607.84;10488823;28;20086;-73
2022/01/02 19:39:11;;;;;;;3.33;1.92;;;;;;;10.93;62.27;99598.00;10504606;28;20036;-72
2022/01/02 19:44:13;;;;;;;3.42;2.00;;;;;;;10.97;62.35;99599.59;10505497;28;20444;-71
2022/01/02 19:49:14;;;;;;;3.00;1.90;;;;;;;10.81;63.15;99604.63;10486383;28;20166;-72
2022/01/02 19:54:16;;;;;;;2.53;1.73;;;;;;;10.86;62.71;99605.31;10487148;28;20123;-73
2022/01/02 19:59:18;;;;;;;3.58;1.88;;;;;;;10.88;62.53;99602.59;10504605;28;20041;-72
2022/01/02 20:04:20;;;;;;;3.55;1.85;;;;;;;10.83;63.23;99608.03;10488019;28;20055;-72
2022/01/02 20:09:23;;;;;;;2.63;1.45;;;;;;;10.77;63.25;99591.66;10487974;28;20053;-73
2022/01/02 20:14:24;;;;;;;3.80;1.85;;;;;;;10.70;63.63;99591.03;10506654;28;20123;-72
2022/01/02 20:19:27;;;;;;;2.95;2.00;;;;;;;10.66;63.74;99576.31;10489659;28;20048;-71
2022/01/02 20:24:29;;;;;;;4.30;2.25;;;;;;;10.72;63.77;99580.47;10490298;28;20049;-72
2022/01/02 20:29:32;;;;;;;2.28;1.75;;;;;;;10.75;64.00;99593.47;10487308;28;20051;-72
2022/01/02 20:34:35;;;;;;;3.55;1.92;;;;;;;10.66;64.19;99594.69;10486269;28;20056;-72
2022/01/02 20:39:37;;;;;;;2.85;1.88;;;;;;;10.69;64.15;99586.69;10485446;28;20094;-73
2022/01/02 20:44:39;;;;;;;2.85;1.90;;;;;;;10.72;64.12;99585.75;10503037;28;20052;-73
2022/01/02 20:49:40;;;;;;;2.65;1.83;;;;;;;10.70;64.23;99592.81;10505143;28;20043;-73
2022/01/02 20:54:43;;;;;;;2.38;1.85;;;;;;;10.70;64.66;99598.94;10485460;28;20059;-73
2022/01/02 20:59:45;;;;;;;2.83;2.10;;;;;;;10.56;65.18;99604.72;10484780;28;20037;-71
2022/01/02 21:04:48;;;;;;;2.00;1.60;;;;;;;10.74;64.72;99583.91;10486645;28;20072;-73
2022/01/02 21:09:49;;;;;;;2.92;1.77;;;;;;;10.59;65.35;99578.34;10469671;28;20409;-73
2022/01/02 21:14:54;;;;;;;3.03;1.73;;;;;;;10.67;65.31;99577.16;10502931;28;20441;-73
2022/01/02 21:19:57;;;;;;;3.72;1.60;;;;;;;10.57;65.80;99564.38;10485890;28;20435;-73
2022/01/02 21:25:00;;;;;;;2.13;1.40;;;;;;;10.81;64.85;99567.81;10504079;28;20079;-72
2022/01/02 21:30:05;;;;;;;4.38;1.70;;;;;;;10.90;64.71;99556.09;10486047;28;20048;-72
2022/01/02 21:35:07;;;;;;;4.10;1.60;;;;;;;10.94;64.56;99562.06;10485635;28;20041;-73
2022/01/02 21:40:10;;;;;;;2.55;1.45;;;;;;;11.02;64.71;99558.22;10484460;28;20090;-72
2022/01/02 21:45:12;;;;;;;2.60;1.50;;;;;;;10.98;65.15;99539.97;10483554;28;20052;-72
2022/01/02 21:50:14;;;;;;;2.15;1.63;;;;;;;10.96;65.25;99532.16;10501179;28;20048;-72
2022/01/02 21:55:16;;;;;;;3.33;1.85;;;;;;;10.98;65.16;99532.06;10501316;28;20048;-72
2022/01/02 22:00:18;;;;;;;2.47;1.27;;;;;;;10.96;65.04;99532.16;10499580;28;20052;-72
2022/01/02 22:05:20;;;;;;;2.72;1.60;;;;;;;11.02;64.80;99531.91;10481922;28;20050;-72
2022/01/02 22:10:25;;;;;;;2.83;1.37;;;;;;;10.97;64.77;99525.97;10500550;28;20041;-72
2022/01/02 22:15:27;;;;;;;1.60;0.90;;;;;;;10.94;65.05;99510.34;10501133;28;20567;-72
2022/01/02 22:20:29;;;;;;;3.13;1.33;;;;;;;10.94;64.94;99489.28;10500621;28;20072;-72
2022/01/02 22:25:35;;;;;;;1.88;1.20;;;;;;;11.03;64.65;99488.91;10500427;28;20059;-72
2022/01/02 22:30:38;;;;;;;2.45;1.10;;;;;;;10.94;64.86;99489.28;10523197;22;20051;-72
2022/01/02 22:35:41;;;;;;;1.60;1.10;;;;;;;10.99;64.45;99479.44;10511725;28;20052;-70
2022/01/02 22:40:44;;;;;;;3.08;1.52;;;;;;;11.07;64.19;99487.00;10491411;28;20098;-71
2022/01/02 22:45:47;;;;;;;1.38;1.20;;;;;;;11.01;64.51;99492.50;10508515;28;20062;-71
2022/01/02 22:50:49;;;;;;;2.10;1.30;;;;;;;10.98;64.83;99498.78;10490623;28;20076;-70
2022/01/02 22:55:52;;;;;;;2.00;1.30;;;;;;;11.02;64.61;99489.84;10508627;28;20048;-71
2022/01/02 23:01:00;;;;;;;3.20;1.40;;;;;;;10.96;64.93;99476.94;10510228;28;20036;-70
2022/01/02 23:06:08;;;;;;;2.80;1.35;;;;;;;11.00;64.72;99464.50;10508034;28;20058;-71
2022/01/02 23:11:13;;;;;;;2.15;1.35;;;;;;;11.01;64.95;99456.53;10509693;28;20032;-71
2022/01/02 23:16:20;;;;;;;4.97;1.60;;;;;;;10.97;65.19;99459.38;10488794;28;20395;-71
2022/01/02 23:21:24;;;;;;;3.45;1.70;;;;;;;10.90;65.66;99466.69;10508660;28;20044;-71
2022/01/02 23:26:26;;;;;;;4.28;1.50;;;;;;;10.78;66.50;99459.28;10507621;28;20052;-71
2022/01/02 23:31:28;;;;;;;2.92;1.52;;;;;;;10.86;65.89;99439.66;10487939;28;20409;-71
2022/01/02 23:36:30;;;;;;;2.97;1.30;;;;;;;10.89;65.76;99438.69;10506203;28;20404;-71